createdAt,value
2019-04-05T00:00:06.899Z,14.17
2019-04-05T00:02:36.441Z,14.12
2019-04-05T00:05:08.654Z,14.12
2019-04-05T00:07:38.102Z,14.07
2019-04-05T00:10:08.362Z,14.11
2019-04-05T00:12:37.812Z,14.07
2019-04-05T00:15:15.000Z,14.00
2019-04-05T00:17:38.544Z,13.92
2019-04-05T00:20:08.436Z,13.95
2019-04-05T00:22:37.879Z,13.96
2019-04-05T00:25:07.294Z,13.86
2019-04-05T00:27:36.754Z,13.88
2019-04-05T00:30:08.971Z,13.92
2019-04-05T00:32:38.404Z,13.88
2019-04-05T00:35:07.821Z,13.87
2019-04-05T00:37:37.368Z,13.84
2019-04-05T00:40:09.039Z,13.92
2019-04-05T00:42:38.482Z,13.90
2019-04-05T00:45:08.171Z,13.93
2019-04-05T00:47:37.621Z,13.92
2019-04-05T00:50:07.411Z,13.92
2019-04-05T00:52:36.964Z,13.95
2019-04-05T00:55:06.661Z,13.90
2019-04-05T00:57:36.103Z,13.94
2019-04-05T01:00:06.187Z,13.98
2019-04-05T01:02:35.732Z,13.95
2019-04-05T01:05:06.895Z,13.87
2019-04-05T01:07:36.354Z,13.90
2019-04-05T01:10:06.557Z,13.87
2019-04-05T01:12:36.008Z,13.88
2019-04-05T01:15:05.499Z,13.85
2019-04-05T01:17:34.949Z,13.88
2019-04-05T01:20:04.366Z,13.84
2019-04-05T01:22:33.917Z,13.82
2019-04-05T01:25:03.773Z,13.80
2019-04-05T01:27:33.530Z,13.82
2019-04-05T01:30:03.050Z,13.78
2019-04-05T01:32:32.596Z,13.74
2019-04-05T01:35:02.047Z,13.68
2019-04-05T01:37:31.571Z,13.66
2019-04-05T01:40:01.021Z,13.55
2019-04-05T01:42:30.508Z,13.51
2019-04-05T01:44:59.961Z,13.46
2019-04-05T01:47:29.382Z,13.42
2019-04-05T01:49:58.829Z,13.43
2019-04-05T01:52:28.485Z,13.44
2019-04-05T01:54:57.934Z,13.44
2019-04-05T01:57:27.354Z,13.41
2019-04-05T01:59:56.845Z,13.55
2019-04-05T02:02:26.265Z,13.49
2019-04-05T02:04:56.038Z,13.41
2019-04-05T02:07:25.654Z,13.38
2019-04-05T02:09:55.207Z,13.34
2019-04-05T02:12:24.637Z,13.38
2019-04-05T02:14:54.080Z,13.31
2019-04-05T02:17:23.501Z,13.30
2019-04-05T02:19:53.006Z,13.29
2019-04-05T02:22:22.434Z,13.28
2019-04-05T02:24:52.963Z,13.20
2019-04-05T02:27:22.423Z,13.15
2019-04-05T02:29:51.871Z,13.14
2019-04-05T02:32:21.289Z,13.10
2019-04-05T02:34:50.742Z,13.02
2019-04-05T02:37:20.181Z,12.99
2019-04-05T02:39:49.721Z,12.96
2019-04-05T02:42:19.155Z,12.95
2019-04-05T02:44:48.599Z,12.96
2019-04-05T02:47:18.021Z,12.94
2019-04-05T02:49:47.485Z,12.90
2019-04-05T02:52:16.894Z,12.89
2019-04-05T02:54:46.678Z,12.84
2019-04-05T02:57:16.579Z,12.84
2019-04-05T02:59:46.028Z,12.84
2019-04-05T03:02:15.444Z,12.83
2019-04-05T03:04:45.076Z,12.78
2019-04-05T03:07:14.492Z,12.75
2019-04-05T03:09:44.040Z,12.69
2019-04-05T03:12:13.456Z,12.68
2019-04-05T03:14:42.914Z,12.70
2019-04-05T03:17:12.335Z,12.69
2019-04-05T03:19:41.868Z,12.60
2019-04-05T03:22:12.123Z,12.61
2019-04-05T03:24:42.139Z,12.59
2019-04-05T03:27:14.596Z,12.51
2019-04-05T03:29:44.053Z,12.43
2019-04-05T03:32:13.461Z,12.31
2019-04-05T03:34:42.970Z,12.20
2019-04-05T03:37:12.519Z,12.13
2019-04-05T03:39:41.986Z,12.05
2019-04-05T03:42:11.451Z,11.95
2019-04-05T03:44:40.992Z,11.90
2019-04-05T03:47:10.414Z,11.87
2019-04-05T03:49:39.867Z,11.83
2019-04-05T03:52:09.335Z,11.86
2019-04-05T03:54:38.793Z,11.83
2019-04-05T03:57:08.211Z,11.78
2019-04-05T03:59:37.632Z,11.76
2019-04-05T04:02:07.071Z,11.67
2019-04-05T04:04:36.496Z,11.58
2019-04-05T04:07:06.041Z,11.53
2019-04-05T04:09:35.474Z,11.46
2019-04-05T04:12:05.025Z,11.48
2019-04-05T04:14:34.457Z,11.45
2019-04-05T04:17:12.309Z,11.34
2019-04-05T04:19:35.535Z,11.33
2019-04-05T04:22:10.932Z,11.24
2019-04-05T04:24:40.347Z,11.25
2019-04-05T04:27:09.819Z,11.20
2019-04-05T04:29:39.906Z,11.15
2019-04-05T04:32:09.467Z,11.08
2019-04-05T04:34:38.976Z,11.14
2019-04-05T04:37:08.427Z,11.14
2019-04-05T04:39:37.843Z,11.08
2019-04-05T04:42:07.398Z,11.12
2019-04-05T04:44:36.818Z,11.19
2019-04-05T04:47:06.278Z,11.20
2019-04-05T04:49:35.704Z,11.28
2019-04-05T04:52:05.155Z,11.35
2019-04-05T04:54:34.574Z,11.41
2019-04-05T04:57:04.030Z,11.41
2019-04-05T04:59:33.548Z,11.43
2019-04-05T05:02:04.306Z,11.42
2019-04-05T05:04:33.829Z,11.49
2019-04-05T05:07:03.299Z,11.49
2019-04-05T05:09:32.725Z,11.49
2019-04-05T05:12:02.269Z,11.53
2019-04-05T05:14:31.696Z,11.53
2019-04-05T05:17:01.247Z,11.56
2019-04-05T05:19:30.768Z,11.56
2019-04-05T05:22:00.234Z,11.53
2019-04-05T05:24:29.935Z,11.54
2019-04-05T05:26:59.595Z,11.54
2019-04-05T05:29:29.001Z,11.48
2019-04-05T05:31:58.687Z,11.50
2019-04-05T05:34:28.101Z,11.60
2019-04-05T05:36:57.981Z,11.72
2019-04-05T05:39:27.417Z,11.75
2019-04-05T05:41:56.948Z,11.78
2019-04-05T05:44:26.462Z,11.94
2019-04-05T05:46:56.226Z,12.04
2019-04-05T05:49:25.678Z,12.10
2019-04-05T05:51:55.239Z,12.17
2019-04-05T05:54:24.663Z,12.22
2019-04-05T05:56:54.117Z,12.43
2019-04-05T05:59:23.534Z,12.57
2019-04-05T06:01:53.345Z,12.72
2019-04-05T06:04:22.870Z,12.85
2019-04-05T06:06:52.319Z,12.95
2019-04-05T06:09:21.844Z,13.17
2019-04-05T06:11:51.301Z,13.32
2019-04-05T06:14:20.721Z,13.43
2019-04-05T06:16:50.197Z,13.51
2019-04-05T06:19:19.781Z,13.64
2019-04-05T06:21:49.387Z,13.70
2019-04-05T06:24:18.941Z,13.80
2019-04-05T06:26:51.047Z,13.86
2019-04-05T06:29:20.600Z,13.94
2019-04-05T06:31:50.246Z,14.05
2019-04-05T06:34:19.672Z,14.15
2019-04-05T06:36:51.171Z,14.27
2019-04-05T06:39:20.764Z,14.41
2019-04-05T06:41:50.377Z,14.49
2019-04-05T06:44:19.897Z,14.60
2019-04-05T06:46:49.351Z,14.68
2019-04-05T06:49:18.884Z,14.70
2019-04-05T06:51:48.437Z,14.74
2019-04-05T06:54:17.884Z,14.82
2019-04-05T06:56:47.303Z,14.92
2019-04-05T06:59:19.337Z,14.91
2019-04-05T07:01:47.861Z,14.96
2019-04-05T07:04:17.405Z,15.02
2019-04-05T07:06:46.834Z,15.10
2019-04-05T07:09:16.407Z,15.18
2019-04-05T07:11:45.929Z,15.20
2019-04-05T07:14:15.378Z,15.33
2019-04-05T07:16:44.900Z,15.49
2019-04-05T07:19:14.355Z,15.69
2019-04-05T07:21:43.772Z,15.87
2019-04-05T07:24:13.527Z,16.01
2019-04-05T07:26:42.949Z,16.12
2019-04-05T07:29:12.399Z,16.30
2019-04-05T07:31:41.823Z,16.43
2019-04-05T07:34:11.271Z,16.56
2019-04-05T07:36:40.685Z,16.72
2019-04-05T07:39:10.237Z,16.77
2019-04-05T07:41:39.649Z,16.77
2019-04-05T07:44:09.093Z,16.96
2019-04-05T07:46:38.513Z,17.04
2019-04-05T07:49:07.962Z,17.15
2019-04-05T07:51:37.386Z,17.19
2019-04-05T07:54:06.941Z,17.32
2019-04-05T07:56:36.358Z,17.56
2019-04-05T07:59:05.908Z,17.76
2019-04-05T08:01:35.433Z,17.83
2019-04-05T08:04:04.893Z,17.89
2019-04-05T08:06:34.582Z,18.00
2019-04-05T08:09:09.577Z,18.07
2019-04-05T08:11:38.998Z,18.21
2019-04-05T08:14:08.556Z,18.15
2019-04-05T08:16:37.961Z,18.26
2019-04-05T08:19:07.424Z,18.19
2019-04-05T08:21:36.858Z,18.43
2019-04-05T08:24:06.325Z,18.55
2019-04-05T08:26:35.759Z,18.71
2019-04-05T08:29:05.298Z,18.68
2019-04-05T08:31:34.925Z,18.95
2019-04-05T08:34:04.386Z,19.01
2019-04-05T08:36:33.811Z,18.97
2019-04-05T08:39:05.314Z,18.95
2019-04-05T08:41:35.064Z,19.32
2019-04-05T08:44:04.782Z,19.54
2019-04-05T08:46:35.087Z,19.80
2019-04-05T08:49:10.476Z,19.98
2019-04-05T08:51:35.733Z,19.87
2019-04-05T08:54:05.664Z,20.08
2019-04-05T08:56:35.312Z,20.39
2019-04-05T08:59:04.858Z,20.76
2019-04-05T09:01:34.496Z,20.90
2019-04-05T09:04:04.460Z,20.73
2019-04-05T09:06:33.905Z,20.81
2019-04-05T09:09:06.118Z,20.79
2019-04-05T09:11:35.624Z,20.81
2019-04-05T09:14:05.355Z,20.96
2019-04-05T09:16:34.808Z,21.38
2019-04-05T09:19:04.325Z,21.59
2019-04-05T09:21:33.787Z,22.04
2019-04-05T09:24:03.697Z,22.54
2019-04-05T09:26:33.247Z,22.70
2019-04-05T09:29:02.839Z,23.08
2019-04-05T09:31:32.441Z,23.41
2019-04-05T09:34:02.418Z,24.30
2019-04-05T09:36:31.886Z,23.84
2019-04-05T09:39:01.304Z,22.67
2019-04-05T09:41:30.857Z,23.41
2019-04-05T09:44:00.270Z,23.19
2019-04-05T09:46:29.917Z,22.70
2019-04-05T09:48:59.328Z,22.50
2019-04-05T09:51:28.777Z,22.61
2019-04-05T09:53:58.189Z,22.58
2019-04-05T09:56:27.631Z,22.92
2019-04-05T09:58:57.046Z,22.70
2019-04-05T10:01:26.508Z,22.87
2019-04-05T10:03:55.928Z,22.91
2019-04-05T10:06:25.581Z,23.27
2019-04-05T10:08:54.992Z,22.97
2019-04-05T10:11:24.441Z,22.45
2019-04-05T10:13:53.859Z,22.03
2019-04-05T10:16:23.319Z,21.89
2019-04-05T10:18:52.738Z,21.75
2019-04-05T10:21:22.182Z,21.55
2019-04-05T10:23:51.597Z,21.93
2019-04-05T10:26:21.045Z,22.08
2019-04-05T10:28:50.459Z,22.18
2019-04-05T10:31:20.106Z,22.52
2019-04-05T10:33:49.518Z,22.86
2019-04-05T10:36:20.143Z,23.68
2019-04-05T10:38:49.757Z,23.63
2019-04-05T10:41:19.201Z,24.39
2019-04-05T10:43:48.674Z,25.40
2019-04-05T10:46:18.124Z,26.00
2019-04-05T10:48:47.538Z,26.95
2019-04-05T10:51:16.984Z,27.20
2019-04-05T10:53:46.403Z,26.88
2019-04-05T10:56:15.943Z,27.19
2019-04-05T10:58:45.365Z,27.26
2019-04-05T11:01:14.816Z,27.34
2019-04-05T11:03:44.327Z,27.56
2019-04-05T11:06:13.793Z,28.56
2019-04-05T11:08:43.211Z,29.14
2019-04-05T11:11:12.662Z,29.47
2019-04-05T11:13:47.573Z,29.44
2019-04-05T11:16:28.305Z,29.27
2019-04-05T11:18:57.829Z,29.80
2019-04-05T11:21:27.390Z,28.98
2019-04-05T11:23:56.806Z,28.18
2019-04-05T11:26:26.266Z,28.44
2019-04-05T11:28:55.679Z,27.86
2019-04-05T11:31:25.229Z,28.22
2019-04-05T11:33:54.649Z,28.60
2019-04-05T11:36:24.471Z,29.08
2019-04-05T11:38:53.880Z,29.14
2019-04-05T11:41:23.811Z,29.08
2019-04-05T11:43:53.334Z,29.23
2019-04-05T11:46:22.787Z,29.76
2019-04-05T11:48:52.240Z,30.43
2019-04-05T11:51:21.690Z,30.63
2019-04-05T11:53:51.330Z,30.63
2019-04-05T11:56:20.981Z,28.85
2019-04-05T11:58:51.098Z,29.24
2019-04-05T12:01:23.695Z,29.37
2019-04-05T12:03:53.273Z,30.04
2019-04-05T12:06:22.685Z,29.74
2019-04-05T12:08:52.137Z,29.16
2019-04-05T12:11:21.556Z,27.07
2019-04-05T12:13:51.117Z,26.32
2019-04-05T12:16:20.535Z,25.80
2019-04-05T12:18:50.843Z,26.71
2019-04-05T12:21:21.036Z,28.28
2019-04-05T12:23:50.595Z,29.35
2019-04-05T12:26:20.006Z,30.32
2019-04-05T12:28:49.462Z,30.26
2019-04-05T12:31:19.376Z,30.33
2019-04-05T12:33:51.381Z,30.71
2019-04-05T12:36:22.039Z,29.74
2019-04-05T12:38:53.990Z,27.96
2019-04-05T12:41:22.215Z,28.70
2019-04-05T12:43:51.666Z,29.20
2019-04-05T12:46:21.171Z,29.12
2019-04-05T12:48:50.631Z,27.96
2019-04-05T12:51:20.043Z,26.58
2019-04-05T12:53:49.484Z,25.86
2019-04-05T12:56:19.103Z,25.47
2019-04-05T12:58:48.554Z,26.56
2019-04-05T13:01:17.970Z,26.74
2019-04-05T13:03:47.404Z,27.97
2019-04-05T13:06:16.816Z,28.84
2019-04-05T13:08:46.371Z,28.95
2019-04-05T13:11:15.785Z,29.70
2019-04-05T13:13:45.337Z,29.80
2019-04-05T13:16:14.743Z,28.62
2019-04-05T13:18:44.282Z,28.10
2019-04-05T13:21:15.632Z,27.64
2019-04-05T13:23:45.096Z,26.97
2019-04-05T13:26:14.509Z,26.34
2019-04-05T13:28:44.159Z,25.33
2019-04-05T13:31:13.607Z,25.40
2019-04-05T13:33:43.057Z,25.33
2019-04-05T13:36:12.473Z,25.41
2019-04-05T13:38:53.948Z,25.57
2019-04-05T13:41:13.129Z,25.73
2019-04-05T13:43:42.569Z,25.47
2019-04-05T13:46:21.272Z,24.80
2019-04-05T13:48:43.164Z,24.41
2019-04-05T13:51:13.073Z,24.41
2019-04-05T13:53:42.601Z,25.37
2019-04-05T13:56:12.012Z,26.85
2019-04-05T13:58:41.456Z,26.88
2019-04-05T14:01:10.924Z,26.80
2019-04-05T14:03:40.379Z,27.17
2019-04-05T14:06:10.794Z,27.37
2019-04-05T14:08:41.927Z,27.15
2019-04-05T14:11:11.820Z,26.59
2019-04-05T14:13:42.964Z,25.95
2019-04-05T14:16:13.142Z,25.55
2019-04-05T14:18:47.975Z,25.13
2019-04-05T14:21:13.860Z,24.75
2019-04-05T14:23:43.281Z,24.33
2019-04-05T14:26:12.820Z,24.11
2019-04-05T14:28:42.232Z,23.94
2019-04-05T14:31:11.680Z,24.15
2019-04-05T14:33:41.111Z,24.42
2019-04-05T14:36:10.566Z,24.49
2019-04-05T14:38:40.087Z,24.42
2019-04-05T14:41:09.528Z,24.56
2019-04-05T14:43:38.952Z,24.59
2019-04-05T14:46:08.970Z,24.30
2019-04-05T14:48:38.484Z,24.03
2019-04-05T14:51:07.948Z,23.74
2019-04-05T14:53:37.494Z,23.47
2019-04-05T14:56:06.948Z,23.49
2019-04-05T14:58:36.369Z,23.61
2019-04-05T15:01:05.951Z,23.70
2019-04-05T15:03:35.368Z,23.86
2019-04-05T15:06:05.172Z,23.72
2019-04-05T15:08:35.102Z,23.86
2019-04-05T15:11:04.813Z,24.70
2019-04-05T15:13:34.645Z,24.73
2019-04-05T15:16:04.107Z,24.59
2019-04-05T15:18:33.525Z,24.19
2019-04-05T15:21:05.461Z,24.11
2019-04-05T15:23:35.076Z,24.24
2019-04-05T15:26:04.589Z,24.40
2019-04-05T15:28:34.006Z,24.43
2019-04-05T15:31:03.908Z,24.14
2019-04-05T15:33:33.319Z,24.14
2019-04-05T15:36:03.228Z,23.85
2019-04-05T15:38:32.642Z,23.80
2019-04-05T15:41:02.105Z,23.78
2019-04-05T15:43:31.618Z,23.69
2019-04-05T15:46:01.215Z,23.52
2019-04-05T15:48:30.735Z,23.44
2019-04-05T15:51:00.189Z,23.20
2019-04-05T15:56:04.024Z,22.76
2019-04-05T15:58:31.490Z,22.23
2019-04-05T16:01:04.183Z,21.79
2019-04-05T16:03:33.373Z,21.41
2019-04-05T16:06:02.823Z,20.96
2019-04-05T16:08:32.336Z,20.81
2019-04-05T16:11:01.990Z,20.65
2019-04-05T16:13:31.408Z,19.65
2019-04-05T16:16:00.865Z,18.81
2019-04-05T16:18:30.408Z,18.45
2019-04-05T16:20:59.834Z,18.14
2019-04-05T16:23:29.386Z,17.86
2019-04-05T16:25:58.814Z,17.68
2019-04-05T16:28:28.363Z,17.55
2019-04-05T16:30:58.780Z,17.39
2019-04-05T16:33:29.954Z,17.26
2019-04-05T16:36:02.260Z,17.08
2019-04-05T16:38:32.384Z,16.93
2019-04-05T16:41:01.814Z,16.88
2019-04-05T16:43:31.363Z,16.79
2019-04-05T16:46:00.960Z,16.73
2019-04-05T16:48:30.517Z,16.64
2019-04-05T16:50:59.940Z,16.59
2019-04-05T16:53:29.393Z,16.54
2019-04-05T16:55:58.806Z,16.52
2019-04-05T16:58:28.253Z,16.50
2019-04-05T17:00:57.682Z,16.47
2019-04-05T17:03:27.137Z,16.45
2019-04-05T17:05:56.554Z,16.42
2019-04-05T17:08:26.118Z,16.39
2019-04-05T17:10:55.631Z,16.39
2019-04-05T17:13:25.252Z,16.36
2019-04-05T17:15:54.679Z,16.37
2019-04-05T17:18:24.242Z,16.37
2019-04-05T17:20:53.777Z,16.40
2019-04-05T17:23:23.229Z,16.39
2019-04-05T17:25:52.654Z,16.40
2019-04-05T17:28:22.212Z,16.39
2019-04-05T17:30:51.662Z,16.38
2019-04-05T17:33:21.217Z,16.35
2019-04-05T17:35:50.646Z,16.35
2019-04-05T17:38:20.098Z,16.32
2019-04-05T17:40:49.521Z,16.28
2019-04-05T17:43:19.072Z,16.25
2019-04-05T17:45:48.597Z,16.19
2019-04-05T17:48:18.148Z,16.16
2019-04-05T17:50:47.680Z,16.13
2019-04-05T17:53:17.148Z,16.11
2019-04-05T17:55:46.574Z,16.12
2019-04-05T17:58:16.028Z,16.10
2019-04-05T18:00:45.450Z,16.10
2019-04-05T18:03:14.900Z,16.03
2019-04-05T18:05:44.320Z,16.02
2019-04-05T18:08:13.775Z,15.99
2019-04-05T18:10:43.677Z,15.95
2019-04-05T18:13:13.222Z,15.96
2019-04-05T18:15:52.505Z,15.97
2019-04-05T18:18:13.997Z,15.96
2019-04-05T18:20:43.518Z,15.98
2019-04-05T18:23:24.276Z,16.00
2019-04-05T18:25:44.095Z,16.00
2019-04-05T18:28:13.549Z,16.00
2019-04-05T18:30:43.000Z,15.99
2019-04-05T18:33:12.448Z,15.97
2019-04-05T18:35:42.037Z,15.97
2019-04-05T18:38:11.490Z,15.98
2019-04-05T18:40:41.014Z,15.94
2019-04-05T18:43:10.474Z,15.95
2019-04-05T18:45:39.928Z,15.92
2019-04-05T18:48:09.358Z,15.88
2019-04-05T18:50:38.807Z,15.86
2019-04-05T18:53:08.240Z,15.84
2019-04-05T18:55:37.974Z,15.83
2019-04-05T18:58:07.399Z,15.81
2019-04-05T19:00:37.081Z,15.82
2019-04-05T19:03:06.610Z,15.82
2019-04-05T19:05:36.371Z,15.83
2019-04-05T19:08:06.302Z,15.81
2019-04-05T19:10:37.478Z,15.82
2019-04-05T19:13:07.159Z,15.84
2019-04-05T19:15:37.056Z,15.83
2019-04-05T19:18:06.727Z,15.84
2019-04-05T19:20:37.135Z,15.84
2019-04-05T19:23:06.516Z,15.85
2019-04-05T19:25:35.975Z,15.85
2019-04-05T19:28:05.408Z,15.84
2019-04-05T19:50:45.631Z,15.75
2019-04-05T19:53:15.058Z,15.78
2019-04-05T19:55:44.612Z,15.77
2019-04-05T19:58:14.030Z,15.76
2019-04-05T20:00:43.490Z,15.75
2019-04-05T20:03:12.918Z,15.77
2019-04-05T20:05:42.482Z,15.78
2019-04-05T20:08:11.951Z,15.76
2019-04-05T20:10:41.503Z,15.74
2019-04-05T20:13:10.927Z,15.75
2019-04-05T20:15:40.384Z,15.75
2019-04-05T20:18:09.817Z,15.74
2019-04-05T20:20:39.362Z,15.72
2019-04-05T20:23:08.794Z,15.75
2019-04-05T20:25:38.259Z,15.74
2019-04-05T20:28:07.943Z,15.72
2019-04-05T20:30:37.492Z,15.71
2019-04-05T20:33:06.916Z,15.74
2019-04-05T20:35:36.451Z,15.73
2019-04-05T20:38:06.258Z,15.71
2019-04-05T20:40:36.274Z,15.68
2019-04-05T20:43:05.808Z,15.63
2019-04-05T20:45:35.561Z,15.61
2019-04-05T20:48:05.034Z,15.57
2019-04-05T20:50:34.445Z,15.56
2019-04-05T20:53:03.867Z,15.54
2019-04-05T20:55:33.317Z,15.47
2019-04-05T20:58:02.744Z,15.42
2019-04-05T21:00:32.571Z,15.35
2019-04-05T21:03:01.995Z,15.27
2019-04-05T21:05:31.546Z,15.24
2019-04-05T21:08:01.070Z,15.17
2019-04-05T21:10:30.515Z,15.19
2019-04-05T21:12:59.941Z,15.10
2019-04-05T21:15:29.411Z,14.99
2019-04-05T21:17:58.860Z,14.93
2019-04-05T21:20:28.321Z,14.91
2019-04-05T21:22:57.772Z,14.88
2019-04-05T21:25:27.298Z,14.84
2019-04-05T21:27:56.755Z,14.77
2019-04-05T21:30:26.171Z,14.68
2019-04-05T21:32:55.624Z,14.63
2019-04-05T21:35:25.043Z,14.55
2019-04-05T21:37:54.498Z,14.48
2019-04-05T21:40:24.026Z,14.45
2019-04-05T21:42:53.474Z,14.39
2019-04-05T21:45:22.890Z,14.39
2019-04-05T21:47:52.459Z,14.31
2019-04-05T21:50:22.042Z,14.24
2019-04-05T21:52:51.438Z,14.22
2019-04-05T21:55:20.966Z,14.19
2019-04-05T21:57:50.586Z,14.20
2019-04-05T22:00:27.886Z,14.19
2019-04-05T22:02:57.441Z,14.10
2019-04-05T22:05:26.861Z,14.04
2019-04-05T22:07:56.314Z,13.99
2019-04-05T22:10:25.741Z,13.95
2019-04-05T22:12:55.191Z,13.87
2019-04-05T22:15:24.618Z,13.81
2019-04-05T22:17:55.521Z,13.79
2019-04-05T22:20:24.953Z,13.78
2019-04-05T22:22:54.414Z,13.74
2019-04-05T22:25:23.839Z,13.67
2019-04-05T22:27:53.291Z,13.59
2019-04-05T22:30:22.721Z,13.52
2019-04-05T22:32:52.186Z,13.53
2019-04-05T22:35:21.708Z,13.49
2019-04-05T22:37:51.160Z,13.46
2019-04-05T22:40:20.590Z,13.34
2019-04-05T22:42:50.137Z,13.29
2019-04-05T22:45:19.658Z,13.27
2019-04-05T22:47:49.117Z,13.32
2019-04-05T22:50:18.638Z,13.36
2019-04-05T22:52:48.086Z,13.34
2019-04-05T22:55:17.813Z,13.29
2019-04-05T22:57:47.465Z,13.24
2019-04-05T23:00:16.988Z,13.17
2019-04-05T23:02:46.661Z,13.14
2019-04-05T23:05:16.189Z,13.08
2019-04-05T23:07:45.734Z,13.03
2019-04-05T23:10:15.259Z,12.98
2019-04-05T23:12:44.813Z,12.94
2019-04-05T23:15:14.355Z,12.87
2019-04-05T23:17:43.802Z,12.85
2019-04-05T23:20:13.237Z,12.78
2019-04-05T23:22:42.784Z,12.83
2019-04-05T23:25:21.460Z,12.72
2019-04-05T23:27:43.555Z,12.69
2019-04-05T23:30:13.047Z,12.59
2019-04-05T23:32:42.503Z,12.55
2019-04-05T23:35:12.031Z,12.48
2019-04-05T23:37:41.585Z,12.42
2019-04-05T23:40:11.014Z,12.34
2019-04-05T23:42:40.477Z,12.36
2019-04-05T23:45:09.998Z,12.34
2019-04-05T23:47:39.457Z,12.29
2019-04-05T23:50:08.876Z,12.30
2019-04-05T23:52:38.442Z,12.21
2019-04-05T23:55:08.081Z,12.25
2019-04-05T23:57:37.551Z,12.22
